Time;durP1;ratioP1;P1;durP2;ratioP2;P2;SDS_P1;SDS_P2;PMS_P1;PMS_P2;Temp;Humidity;BMP_temperature;BMP_pressure;BME280_temperature;BME280_humidity;BME280_pressure;Samples;Min_cycle;Max_cycle;Signal;HPM_P1;HPM_P2
2022/07/29 00:01:16;;;;;;;4.03;1.83;;;;;;;21.18;62.14;96194.75;5032581;28;20052;-78
2022/07/29 00:03:42;;;;;;;3.15;1.50;;;;;;;21.15;61.70;96187.25;5033122;28;20073;-79
2022/07/29 00:06:10;;;;;;;4.20;1.50;;;;;;;21.14;61.62;96193.94;5032493;28;20057;-81
2022/07/29 00:08:36;;;;;;;2.95;1.30;;;;;;;21.15;61.56;96195.56;5032786;28;20045;-79
2022/07/29 00:11:03;;;;;;;3.75;1.67;;;;;;;21.12;61.20;96197.09;5032512;28;20045;-76
2022/07/29 00:13:29;;;;;;;3.22;1.42;;;;;;;20.88;61.83;96195.84;5032550;28;20053;-77
2022/07/29 00:15:56;;;;;;;2.35;1.42;;;;;;;20.88;61.37;96197.78;5032600;28;20049;-78
2022/07/29 00:18:22;;;;;;;2.22;1.13;;;;;;;20.75;61.30;96195.38;5031974;28;20042;-77
2022/07/29 00:20:50;;;;;;;1.40;1.00;;;;;;;20.72;62.08;96200.88;5032449;28;20053;-77
2022/07/29 00:23:18;;;;;;;2.60;1.23;;;;;;;20.64;61.93;96186.22;5029625;28;20045;-77
2022/07/29 00:25:44;;;;;;;2.08;1.25;;;;;;;20.46;62.61;96193.59;5032656;28;20054;-77
2022/07/29 00:28:10;;;;;;;3.08;1.30;;;;;;;20.53;63.02;96200.00;5032092;28;20508;-77
2022/07/29 00:30:37;;;;;;;1.40;1.08;;;;;;;20.41;63.44;96197.53;5032522;28;20838;-77
2022/07/29 00:33:03;;;;;;;1.98;1.23;;;;;;;20.43;62.88;96189.66;5031817;28;20052;-77
2022/07/29 00:38:19;;;;;;;1.73;1.20;;;;;;;20.36;63.00;96183.25;5026097;28;20100;-78
2022/07/29 00:40:46;;;;;;;2.85;1.42;;;;;;;20.16;63.32;96183.53;5032097;28;20045;-78
2022/07/29 00:43:14;;;;;;;1.85;1.33;;;;;;;20.10;63.83;96187.03;5031714;28;20042;-77
2022/07/29 00:45:41;;;;;;;1.27;1.00;;;;;;;19.92;64.75;96187.69;5032092;28;20045;-76
2022/07/29 00:48:08;;;;;;;2.15;1.38;;;;;;;20.00;64.66;96172.78;5031564;28;20049;-77
2022/07/29 00:50:36;;;;;;;2.13;1.30;;;;;;;19.90;65.13;96172.69;5031972;28;20130;-79
2022/07/29 00:53:04;;;;;;;3.72;1.48;;;;;;;19.69;65.67;96162.25;5031109;28;20045;-76
2022/07/29 00:55:31;;;;;;;2.35;1.30;;;;;;;19.87;65.29;96174.22;5032077;28;20539;-79
2022/07/29 00:57:59;;;;;;;3.78;1.20;;;;;;;19.81;65.24;96181.28;5031940;28;20448;-78
2022/07/29 01:00:28;;;;;;;2.53;1.45;;;;;;;19.63;65.93;96180.34;5031041;28;20048;-79
2022/07/29 01:02:55;;;;;;;1.42;1.13;;;;;;;19.82;65.61;96185.63;5031583;28;20523;-78
2022/07/29 01:05:23;;;;;;;1.90;1.33;;;;;;;19.61;66.47;96172.44;5031058;28;20053;-78
2022/07/29 01:07:53;;;;;;;4.05;1.48;;;;;;;19.60;66.80;96170.06;5031335;28;20053;-79
2022/07/29 01:10:20;;;;;;;3.67;1.48;;;;;;;19.44;67.18;96173.84;5030937;28;20053;-78
2022/07/29 01:12:51;;;;;;;2.17;1.40;;;;;;;19.43;67.27;96166.72;5031556;28;20053;-79
2022/07/29 01:15:18;;;;;;;1.92;1.35;;;;;;;19.48;67.55;96158.09;5030990;28;20049;-80
2022/07/29 01:17:49;;;;;;;2.58;1.63;;;;;;;19.62;67.26;96159.41;5031419;28;20054;-79
2022/07/29 01:20:24;;;;;;;2.70;1.55;;;;;;;19.58;67.85;96155.81;5030745;28;20045;-78
2022/07/29 01:23:40;;;;;;;2.30;1.40;;;;;;;19.49;67.99;96162.44;5040295;28;20053;-78
2022/07/29 01:26:39;;;;;;;2.45;1.40;;;;;;;19.44;68.08;96160.03;5047513;28;20041;-79
2022/07/29 01:29:13;;;;;;;1.98;1.20;;;;;;;19.51;67.92;96162.84;5051060;28;20048;-78
2022/07/29 01:31:48;;;;;;;2.63;1.48;;;;;;;19.51;68.15;96157.31;5053591;28;20064;-76
2022/07/29 01:34:21;;;;;;;1.65;1.30;;;;;;;19.56;68.12;96158.94;5053115;28;20048;-77
2022/07/29 01:36:52;;;;;;;2.28;1.40;;;;;;;19.40;68.73;96159.19;5053207;28;20045;-76
2022/07/29 01:39:24;;;;;;;2.88;1.73;;;;;;;19.46;68.62;96162.41;5052444;28;20099;-77
2022/07/29 01:41:55;;;;;;;3.30;1.90;;;;;;;19.51;69.02;96157.31;5053087;28;20041;-78
2022/07/29 01:44:31;;;;;;;1.92;1.33;;;;;;;19.41;69.50;96158.00;5052572;28;20056;-77
2022/07/29 01:47:02;;;;;;;1.88;1.40;;;;;;;19.49;69.42;96159.69;5052888;28;20538;-78
2022/07/29 01:49:32;;;;;;;1.88;1.52;;;;;;;19.59;69.66;96162.94;5072210;28;20040;-77
2022/07/29 01:52:04;;;;;;;4.57;1.50;;;;;;;19.63;69.01;96158.22;5068321;28;20037;-77
2022/07/29 01:54:36;;;;;;;3.28;1.50;;;;;;;19.62;69.27;96153.88;5052336;28;20400;-78
2022/07/29 01:57:05;;;;;;;2.15;1.50;;;;;;;19.69;69.69;96151.22;5051942;28;20118;-77
2022/07/29 01:59:35;;;;;;;3.25;1.40;;;;;;;19.62;69.44;96145.59;5052100;28;20083;-76
2022/07/29 02:02:05;;;;;;;2.85;1.58;;;;;;;19.71;68.84;96146.09;5051877;28;20044;-77
2022/07/29 02:04:34;;;;;;;3.38;1.40;;;;;;;19.75;69.07;96138.63;5051779;28;20045;-78
2022/07/29 02:07:06;;;;;;;4.60;1.50;;;;;;;19.77;69.45;96136.25;5051363;28;20052;-76
2022/07/29 02:09:34;;;;;;;1.60;1.35;;;;;;;19.73;68.95;96135.44;5051967;28;20179;-77
2022/07/29 02:12:03;;;;;;;1.67;1.40;;;;;;;19.81;69.29;96128.81;5051776;28;20056;-78
2022/07/29 02:14:34;;;;;;;1.92;1.52;;;;;;;19.73;68.98;96124.38;5051229;28;20037;-78
2022/07/29 02:17:02;;;;;;;3.85;1.60;;;;;;;19.79;69.70;96128.41;5051547;28;20067;-78
2022/07/29 02:19:32;;;;;;;4.40;1.58;;;;;;;19.75;68.61;96122.06;5050883;28;20052;-77
2022/07/29 02:22:00;;;;;;;2.00;1.65;;;;;;;19.75;68.48;96125.59;5050651;28;20045;-77
2022/07/29 02:24:29;;;;;;;3.10;1.60;;;;;;;19.83;68.96;96128.41;5050551;28;20488;-77
2022/07/29 02:26:58;;;;;;;3.15;1.60;;;;;;;19.87;69.29;96112.66;5051354;28;20455;-79
2022/07/29 02:29:27;;;;;;;3.47;1.48;;;;;;;19.85;69.11;96115.81;5050392;28;20048;-77
2022/07/29 02:31:58;;;;;;;1.35;1.25;;;;;;;19.83;69.83;96117.34;5050948;28;20048;-77
2022/07/29 02:34:25;;;;;;;1.75;1.48;;;;;;;19.84;70.10;96105.94;5050554;28;20048;-78
2022/07/29 02:36:54;;;;;;;2.33;1.50;;;;;;;19.87;70.26;96102.38;5050666;28;20041;-77
2022/07/29 02:39:24;;;;;;;2.15;1.60;;;;;;;19.85;68.95;96098.44;5050155;28;20459;-76
2022/07/29 02:41:55;;;;;;;3.03;1.55;;;;;;;19.86;69.56;96097.25;5050790;28;20084;-78
2022/07/29 02:44:26;;;;;;;2.92;1.50;;;;;;;19.91;69.28;96094.13;5049910;28;20393;-77
2022/07/29 02:47:00;;;;;;;3.17;1.75;;;;;;;19.93;69.58;96092.56;5050830;28;20056;-77
2022/07/29 02:49:35;;;;;;;2.88;1.45;;;;;;;19.91;68.56;96097.69;5050018;28;20044;-77
2022/07/29 02:52:06;;;;;;;1.52;1.20;;;;;;;19.85;68.39;96102.00;5049716;28;20073;-78
2022/07/29 02:54:40;;;;;;;3.35;1.73;;;;;;;19.79;69.53;96096.03;5050454;28;20052;-77
2022/07/29 02:57:17;;;;;;;2.25;1.52;;;;;;;19.74;69.63;96099.16;5050242;28;20053;-78
2022/07/29 02:59:48;;;;;;;2.33;1.60;;;;;;;19.84;69.18;96107.88;5050923;28;20118;-77
2022/07/29 03:02:17;;;;;;;3.22;1.70;;;;;;;19.78;68.92;96102.75;5053958;28;20056;-77
2022/07/29 03:04:45;;;;;;;2.92;1.65;;;;;;;19.83;68.73;96107.09;5054557;28;20048;-77
2022/07/29 03:07:15;;;;;;;2.33;1.60;;;;;;;19.85;69.02;96106.72;5054191;28;20732;-77
2022/07/29 03:09:43;;;;;;;2.78;1.63;;;;;;;19.84;69.27;96108.69;5054317;28;20053;-77
2022/07/29 03:12:10;;;;;;;2.95;1.67;;;;;;;19.78;69.51;96110.22;5053424;28;20056;-77
2022/07/29 03:14:37;;;;;;;2.20;1.63;;;;;;;19.79;69.55;96111.81;5054001;28;20408;-78
2022/07/29 03:17:04;;;;;;;3.40;1.90;;;;;;;19.79;69.03;96106.28;5053420;28;20046;-77
2022/07/29 03:19:35;;;;;;;2.42;1.70;;;;;;;19.68;69.15;96099.88;5054164;28;20041;-77
2022/07/29 03:22:02;;;;;;;4.05;1.75;;;;;;;19.66;69.33;96097.50;5053270;28;21087;-77
2022/07/29 03:24:31;;;;;;;1.60;1.35;;;;;;;19.71;69.91;96101.88;5053636;28;20044;-77
2022/07/29 03:26:58;;;;;;;2.60;1.60;;;;;;;19.74;69.86;96109.41;5053769;28;20041;-78
2022/07/29 03:29:25;;;;;;;3.42;1.80;;;;;;;19.72;69.62;96111.75;5052948;28;20060;-77
2022/07/29 03:31:52;;;;;;;3.15;1.40;;;;;;;19.77;69.97;96098.38;5053485;28;20045;-78
2022/07/29 03:34:18;;;;;;;1.85;1.42;;;;;;;19.80;70.33;96108.66;5053028;28;20127;-78
2022/07/29 03:36:49;;;;;;;3.35;1.60;;;;;;;19.78;71.12;96112.97;5053333;28;20052;-77
2022/07/29 03:39:21;;;;;;;2.58;1.60;;;;;;;19.77;70.06;96106.66;5052614;28;20045;-77
2022/07/29 03:41:50;;;;;;;3.37;1.77;;;;;;;19.74;69.80;96110.22;5052935;28;20497;-77
2022/07/29 03:44:18;;;;;;;3.22;1.70;;;;;;;19.75;69.79;96108.25;5052698;28;20052;-78
2022/07/29 03:46:46;;;;;;;2.35;1.60;;;;;;;19.66;69.48;96108.56;5052983;28;20052;-77
2022/07/29 03:49:15;;;;;;;2.80;1.80;;;;;;;19.56;69.71;96103.72;5052788;28;20056;-77
2022/07/29 03:51:42;;;;;;;1.98;1.58;;;;;;;19.50;69.16;96106.03;5053075;28;20049;-77
2022/07/29 03:54:11;;;;;;;1.60;1.30;;;;;;;19.42;69.80;96104.41;5052669;28;20564;-77
2022/07/29 03:56:40;;;;;;;2.90;1.80;;;;;;;19.48;71.42;96113.13;5052612;28;20652;-77
2022/07/29 03:59:08;;;;;;;2.80;1.80;;;;;;;19.46;70.88;96110.72;5052271;28;20052;-77
2022/07/29 04:01:35;;;;;;;3.00;1.77;;;;;;;19.44;71.03;96107.56;5052612;28;20044;-76
2022/07/29 04:04:02;;;;;;;3.08;1.80;;;;;;;19.43;71.06;96111.50;5052617;28;20049;-78
2022/07/29 04:06:29;;;;;;;2.92;1.73;;;;;;;19.43;71.43;96108.75;5052532;28;20451;-76
2022/07/29 04:08:55;;;;;;;2.33;1.73;;;;;;;19.38;71.94;96111.84;5052903;28;20060;-77
2022/07/29 04:11:23;;;;;;;2.85;1.77;;;;;;;19.36;72.13;96105.91;5051827;28;20045;-76
2022/07/29 04:13:50;;;;;;;3.70;1.80;;;;;;;19.33;72.75;96112.19;5052567;28;20045;-76
2022/07/29 04:16:16;;;;;;;4.65;1.92;;;;;;;19.28;72.71;96115.31;5052218;28;20048;-77
2022/07/29 04:18:43;;;;;;;3.38;1.90;;;;;;;19.25;73.23;96118.81;5052804;28;20053;-78
2022/07/29 04:21:09;;;;;;;2.45;1.65;;;;;;;19.20;73.07;96119.16;5052119;28;20124;-77
2022/07/29 04:23:35;;;;;;;3.10;1.80;;;;;;;19.16;73.59;96115.56;5067670;28;20048;-77
2022/07/29 04:26:02;;;;;;;3.63;2.00;;;;;;;19.15;73.41;96120.28;5072278;28;20056;-75
2022/07/29 04:28:30;;;;;;;3.33;2.10;;;;;;;19.13;73.21;96113.56;5072450;28;20104;-76
2022/07/29 04:30:56;;;;;;;3.10;2.00;;;;;;;19.12;73.41;96118.31;5072435;28;20044;-77
2022/07/29 04:33:23;;;;;;;2.47;1.88;;;;;;;19.04;73.17;96122.94;5071801;28;20048;-76
2022/07/29 04:35:49;;;;;;;2.22;1.85;;;;;;;18.98;73.36;96124.47;5072533;28;20044;-75
2022/07/29 04:38:16;;;;;;;1.98;1.67;;;;;;;18.99;73.66;96128.00;5071760;28;20044;-77
2022/07/29 04:40:42;;;;;;;4.65;1.90;;;;;;;18.96;71.80;96126.81;5072117;28;20076;-78
2022/07/29 04:43:09;;;;;;;2.20;1.80;;;;;;;18.98;72.23;96124.47;5071776;28;20045;-77
2022/07/29 04:45:37;;;;;;;2.78;1.73;;;;;;;18.96;72.43;96126.81;5072191;28;20048;-76
2022/07/29 04:48:04;;;;;;;2.72;1.80;;;;;;;18.98;73.08;96129.97;5071990;28;20055;-77
2022/07/29 04:50:30;;;;;;;4.88;2.55;;;;;;;18.98;73.23;96129.97;5071869;28;20044;-77
2022/07/29 04:52:57;;;;;;;3.60;2.30;;;;;;;19.03;73.09;96126.88;5060695;28;20049;-76
2022/07/29 04:55:23;;;;;;;3.13;1.90;;;;;;;19.03;72.82;96132.41;5053678;28;20045;-76
2022/07/29 04:57:50;;;;;;;4.35;2.00;;;;;;;19.06;72.83;96130.06;5054559;28;20072;-76
2022/07/29 05:00:16;;;;;;;3.38;1.98;;;;;;;19.06;72.91;96124.56;5053101;28;20049;-77
2022/07/29 05:02:44;;;;;;;4.43;1.90;;;;;;;19.08;72.94;96133.25;5053264;28;20052;-76
2022/07/29 05:05:11;;;;;;;3.35;1.73;;;;;;;19.08;73.25;96133.25;5052563;28;20045;-78
2022/07/29 05:07:37;;;;;;;2.75;2.13;;;;;;;19.06;72.82;96136.38;5053607;28;20052;-77
2022/07/29 05:10:04;;;;;;;2.95;2.25;;;;;;;19.09;73.05;96134.81;5052985;28;20056;-78
2022/07/29 05:12:31;;;;;;;3.63;2.30;;;;;;;19.12;72.90;96140.38;5053428;28;20048;-79
2022/07/29 05:14:57;;;;;;;3.17;2.13;;;;;;;19.19;74.54;96137.69;5052877;28;20041;-78
2022/07/29 05:17:24;;;;;;;3.40;2.28;;;;;;;19.23;73.82;96135.75;5052740;28;20048;-78
2022/07/29 05:19:52;;;;;;;3.75;2.50;;;;;;;19.20;72.48;96136.50;5053118;28;20045;-78
2022/07/29 05:22:19;;;;;;;3.78;2.30;;;;;;;19.18;72.28;96144.38;5050974;28;20041;-78
2022/07/29 05:24:45;;;;;;;6.75;2.25;;;;;;;19.28;72.38;96140.16;5052972;28;20061;-77
2022/07/29 05:27:12;;;;;;;4.20;2.63;;;;;;;19.30;72.79;96146.06;5052065;28;20393;-77
2022/07/29 05:29:38;;;;;;;4.90;2.22;;;;;;;19.35;73.03;96142.97;5052515;28;20045;-77
2022/07/29 05:32:05;;;;;;;2.53;2.00;;;;;;;19.34;72.23;96146.13;5052002;28;20047;-78
2022/07/29 05:34:32;;;;;;;2.97;2.00;;;;;;;19.34;71.71;96141.38;5053684;28;20055;-79
2022/07/29 05:37:00;;;;;;;2.85;2.10;;;;;;;19.37;72.38;96151.69;5061525;28;20045;-89
2022/07/29 05:39:26;;;;;;;2.88;1.73;;;;;;;19.44;71.95;96148.97;5061240;28;20044;-77
2022/07/29 05:41:53;;;;;;;2.97;1.73;;;;;;;19.49;70.68;96153.38;5051094;28;20041;-76
2022/07/29 05:44:20;;;;;;;2.35;2.03;;;;;;;19.58;71.37;96145.56;5050970;28;20045;-78
2022/07/29 05:46:46;;;;;;;3.95;1.80;;;;;;;19.64;72.03;96143.28;5051251;28;20109;-77
2022/07/29 05:49:12;;;;;;;3.15;1.98;;;;;;;19.68;69.98;96155.13;5051126;28;20045;-75
2022/07/29 05:51:39;;;;;;;2.50;1.63;;;;;;;19.70;70.58;96153.59;5051468;28;20048;-76
2022/07/29 05:54:07;;;;;;;5.68;1.77;;;;;;;19.73;71.32;96152.84;5051061;28;20138;-76
2022/07/29 05:56:34;;;;;;;3.22;1.58;;;;;;;19.66;68.77;96157.47;5051078;28;20441;-76
2022/07/29 05:59:00;;;;;;;2.10;1.40;;;;;;;19.73;68.14;96152.00;5051192;28;20079;-76
2022/07/29 06:01:27;;;;;;;3.28;1.60;;;;;;;19.74;67.26;96159.16;5050964;28;20044;-77
2022/07/29 06:03:53;;;;;;;3.72;1.75;;;;;;;19.58;67.15;96166.88;5051400;28;20515;-76
2022/07/29 06:06:20;;;;;;;3.05;1.63;;;;;;;19.60;67.15;96161.78;5050482;28;20393;-76
2022/07/29 06:08:46;;;;;;;1.60;1.27;;;;;;;19.66;66.53;96168.53;5051216;28;20052;-77
2022/07/29 06:11:14;;;;;;;1.92;1.33;;;;;;;19.76;67.59;96168.63;5050949;28;20044;-76
2022/07/29 06:13:40;;;;;;;3.42;1.50;;;;;;;19.89;67.24;96169.13;5050902;28;20079;-76
2022/07/29 06:16:07;;;;;;;3.53;1.50;;;;;;;19.88;66.82;96166.75;5050161;28;20049;-77
2022/07/29 06:18:33;;;;;;;3.38;1.50;;;;;;;19.91;65.76;96180.59;5051115;28;20072;-76
2022/07/29 06:21:00;;;;;;;1.63;1.20;;;;;;;20.06;65.58;96176.75;5050826;28;20462;-77
2022/07/29 06:23:26;;;;;;;4.22;1.60;;;;;;;20.02;66.06;96181.47;5049953;28;20488;-75
2022/07/29 06:25:53;;;;;;;4.68;1.63;;;;;;;20.11;66.27;96177.59;5050889;28;20045;-77
2022/07/29 06:28:21;;;;;;;4.35;1.40;;;;;;;20.20;66.39;96186.31;5050546;28;20136;-76
2022/07/29 06:30:47;;;;;;;2.70;1.65;;;;;;;20.27;66.63;96189.16;5050153;28;20049;-76
2022/07/29 06:33:17;;;;;;;2.38;1.45;;;;;;;20.33;66.34;96193.13;5050363;28;20056;-77
2022/07/29 06:35:44;;;;;;;2.40;1.33;;;;;;;20.41;67.22;96186.47;5050165;28;20047;-79
2022/07/29 06:38:12;;;;;;;1.88;1.45;;;;;;;20.43;66.31;96183.31;5049560;28;20051;-77
2022/07/29 06:43:28;;;;;;;1.42;1.20;;;;;;;20.13;62.86;96183.50;5049671;28;20051;-77
2022/07/29 06:45:55;;;;;;;3.25;1.38;;;;;;;20.02;62.73;96187.00;5049672;28;20669;-81
2022/07/29 06:48:22;;;;;;;1.60;1.10;;;;;;;20.22;63.41;96187.53;5048095;28;20045;-76
2022/07/29 06:50:48;;;;;;;1.70;1.00;;;;;;;20.45;62.43;96200.31;5053402;28;20060;-78
2022/07/29 06:53:15;;;;;;;1.95;1.63;;;;;;;20.32;61.38;96188.78;5050502;28;20045;-77
2022/07/29 06:55:42;;;;;;;1.77;1.00;;;;;;;20.39;62.42;96188.03;5050471;28;20056;-77
2022/07/29 06:58:09;;;;;;;2.50;1.10;;;;;;;20.55;62.84;96189.34;5057584;28;20048;-77
2022/07/29 07:00:37;;;;;;;3.78;1.33;;;;;;;20.51;61.90;96188.53;5063804;28;20049;-81
2022/07/29 07:03:04;;;;;;;1.55;0.90;;;;;;;20.75;62.67;96189.06;5055672;28;20504;-77
2022/07/29 07:05:30;;;;;;;1.40;1.10;;;;;;;20.91;62.16;96189.53;5049814;28;20049;-76
2022/07/29 07:07:57;;;;;;;3.08;1.50;;;;;;;20.86;62.98;96189.88;5051402;28;20136;-79
2022/07/29 07:10:24;;;;;;;2.10;1.35;;;;;;;21.11;63.56;96196.31;5049069;28;20495;-76
2022/07/29 07:12:50;;;;;;;3.05;1.88;;;;;;;21.21;63.06;96189.25;5049789;28;20415;-76
2022/07/29 07:15:21;;;;;;;2.10;1.45;;;;;;;21.22;61.45;96193.59;5049556;28;20132;-78
2022/07/29 07:17:49;;;;;;;2.30;1.50;;;;;;;21.22;60.67;96196.34;5055192;28;20045;-81
2022/07/29 07:20:15;;;;;;;2.15;1.55;;;;;;;21.22;60.00;96195.56;5057526;28;20069;-81
2022/07/29 07:22:42;;;;;;;2.72;1.30;;;;;;;21.22;60.31;96190.03;5052458;28;20048;-76
2022/07/29 07:25:08;;;;;;;3.53;1.40;;;;;;;21.32;60.52;96187.31;5049701;28;20041;-76
2022/07/29 07:27:35;;;;;;;1.70;1.40;;;;;;;21.46;58.92;96177.47;5049843;28;20052;-78
2022/07/29 07:30:02;;;;;;;1.88;1.23;;;;;;;21.47;59.66;96196.44;5048811;28;20045;-77
2022/07/29 07:32:28;;;;;;;2.08;1.38;;;;;;;21.70;60.53;96181.44;5050879;28;20048;-77
2022/07/29 07:34:56;;;;;;;4.90;1.63;;;;;;;21.79;58.34;96181.84;5049532;28;20045;-77
2022/07/29 07:37:24;;;;;;;2.95;1.75;;;;;;;21.73;56.49;96194.53;5053469;28;20052;-78
2022/07/29 07:39:51;;;;;;;1.60;1.23;;;;;;;21.96;56.87;96186.59;5051124;28;20095;-76
2022/07/29 07:42:17;;;;;;;2.40;1.33;;;;;;;21.96;56.70;96189.38;5051920;28;20504;-74
2022/07/29 07:44:45;;;;;;;2.55;1.70;;;;;;;21.96;56.39;96192.13;5052403;28;20090;-75
2022/07/29 07:47:12;;;;;;;5.85;1.85;;;;;;;21.87;56.68;96186.19;5054570;28;20053;-75
2022/07/29 07:49:38;;;;;;;2.67;1.40;;;;;;;22.03;57.75;96183.84;5057671;28;20044;-78
2022/07/29 07:52:06;;;;;;;2.15;1.55;;;;;;;22.18;55.73;96183.84;5058571;28;20040;-76
2022/07/29 07:54:33;;;;;;;2.08;1.38;;;;;;;22.16;54.96;96177.91;5078931;28;20047;-82
2022/07/29 07:57:00;;;;;;;1.52;1.30;;;;;;;22.34;55.96;96181.44;5086205;28;20044;-80
2022/07/29 07:59:27;;;;;;;1.50;1.30;;;;;;;22.49;55.92;96182.22;5077847;28;20519;-78
2022/07/29 08:01:53;;;;;;;2.83;1.50;;;;;;;22.51;54.96;96177.84;5074679;28;20051;-79
2022/07/29 08:04:19;;;;;;;2.20;1.42;;;;;;;22.96;53.05;96178.13;5073335;28;20048;-78
2022/07/29 08:06:46;;;;;;;3.35;1.50;;;;;;;23.58;53.52;96171.84;5074417;28;20055;-77
2022/07/29 08:09:14;;;;;;;2.20;1.40;;;;;;;23.78;50.89;96182.47;5073590;28;20456;-75
2022/07/29 08:11:40;;;;;;;5.40;1.88;;;;;;;24.27;51.34;96177.69;5073061;28;20442;-75
2022/07/29 08:14:06;;;;;;;2.55;1.35;;;;;;;24.30;49.43;96182.44;5072996;28;20045;-76
2022/07/29 08:16:33;;;;;;;2.60;1.50;;;;;;;24.40;50.57;96184.34;5073059;28;20086;-77
2022/07/29 08:18:59;;;;;;;3.65;1.30;;;;;;;24.70;50.32;96181.66;5064618;28;20041;-78
2022/07/29 08:21:26;;;;;;;2.60;1.55;;;;;;;24.87;49.63;96188.22;5077070;28;20047;-78
2022/07/29 08:24:42;;;;;;;2.40;1.48;;;;;;;24.84;48.21;96179.91;5054419;28;20052;-79
2022/07/29 08:26:41;;;;;;;2.80;1.50;;;;;;;25.08;48.93;96172.50;5059235;28;20080;-79
2022/07/29 08:29:07;;;;;;;3.83;1.67;;;;;;;25.18;48.08;96182.72;5064007;28;20048;-80
2022/07/29 08:31:34;;;;;;;3.28;1.70;;;;;;;24.67;48.43;96181.69;5079509;28;20044;-80
2022/07/29 08:34:00;;;;;;;1.90;1.50;;;;;;;24.78;49.37;96187.91;5072142;28;20045;-84
2022/07/29 08:36:27;;;;;;;2.80;1.50;;;;;;;24.67;48.53;96182.47;5059559;28;20403;-75
2022/07/29 08:38:53;;;;;;;2.80;1.52;;;;;;;24.56;49.56;96192.16;5054020;28;20041;-84
2022/07/29 08:41:20;;;;;;;1.98;1.50;;;;;;;24.76;49.77;96184.78;5058393;28;20056;-81
2022/07/29 08:43:48;;;;;;;2.35;1.55;;;;;;;24.50;48.74;96191.03;5061866;28;20520;-81
2022/07/29 08:46:15;;;;;;;5.30;1.73;;;;;;;24.62;48.68;96185.72;5064506;28;20128;-85
2022/07/29 08:48:42;;;;;;;2.55;1.70;;;;;;;24.81;51.00;96189.88;5063151;28;20068;-75
2022/07/29 08:51:09;;;;;;;2.55;1.60;;;;;;;24.95;47.96;96191.69;5057067;28;20099;-79
2022/07/29 08:53:37;;;;;;;3.63;1.58;;;;;;;24.77;46.96;96191.13;5053849;28;20044;-78
2022/07/29 08:56:04;;;;;;;2.33;1.60;;;;;;;24.87;48.15;96190.22;5051847;28;20049;-78
2022/07/29 08:58:34;;;;;;;3.22;1.70;;;;;;;24.77;47.75;96191.91;5054214;28;20045;-80
2022/07/29 09:01:03;;;;;;;3.08;1.48;;;;;;;24.97;46.54;96189.31;5052670;28;20052;-76
2022/07/29 09:03:32;;;;;;;3.65;1.48;;;;;;;25.01;47.01;96189.28;5043657;28;20159;-76
2022/07/29 09:05:59;;;;;;;1.88;1.40;;;;;;;25.08;46.60;96178.84;5051484;28;20385;-76
2022/07/29 09:08:26;;;;;;;4.68;1.83;;;;;;;25.27;48.49;96180.22;5054702;28;20040;-79
2022/07/29 09:10:53;;;;;;;3.35;2.05;;;;;;;25.42;47.80;96180.78;5054537;28;20045;-78
2022/07/29 09:13:19;;;;;;;4.20;1.70;;;;;;;25.16;45.35;96180.34;5054291;28;20108;-79
2022/07/29 09:15:46;;;;;;;4.38;1.70;;;;;;;25.16;47.53;96179.53;5055732;28;20504;-79
2022/07/29 09:18:34;;;;;;;4.55;1.88;;;;;;;25.27;46.20;96180.22;5053905;28;20061;-79
2022/07/29 09:24:00;;;;;;;2.55;1.60;;;;;;;25.57;46.96;96175.81;5051139;28;20347;-78
2022/07/29 09:26:29;;;;;;;2.13;1.33;;;;;;;25.39;45.27;96170.50;5056863;28;20045;-75
2022/07/29 09:28:55;;;;;;;2.15;1.35;;;;;;;25.15;45.88;96173.19;5054333;28;20072;-76
2022/07/29 09:31:33;;;;;;;2.42;1.38;;;;;;;25.37;43.88;96184.03;5051523;28;20064;-76
2022/07/29 09:34:01;;;;;;;4.13;1.10;;;;;;;25.42;42.67;96189.16;5051156;28;20476;-77
2022/07/29 09:36:28;;;;;;;4.60;1.13;;;;;;;25.21;41.95;96185.47;5050544;28;20041;-76
2022/07/29 09:39:02;;;;;;;1.13;0.98;;;;;;;25.31;42.80;96180.16;5050864;28;20044;-76
2022/07/29 09:41:28;;;;;;;5.63;1.50;;;;;;;25.47;46.04;96177.53;5051061;28;20116;-75
2022/07/29 09:43:56;;;;;;;2.25;1.50;;;;;;;25.61;46.51;96188.47;5051172;28;20072;-75
2022/07/29 09:46:24;;;;;;;2.53;1.33;;;;;;;25.57;44.67;96176.59;5050525;28;20489;-77
2022/07/29 09:49:09;;;;;;;4.85;1.50;;;;;;;25.57;44.84;96173.81;5051106;28;20049;-79
2022/07/29 09:51:36;;;;;;;4.53;1.70;;;;;;;25.79;48.58;96162.34;5030821;28;20616;-78
2022/07/29 09:54:21;;;;;;;2.60;1.50;;;;;;;26.02;47.25;96170.75;5030229;28;20560;-76
2022/07/29 09:56:48;;;;;;;4.80;1.63;;;;;;;26.22;48.82;96163.25;5031497;28;20057;-77
2022/07/29 09:59:15;;;;;;;3.42;1.65;;;;;;;26.34;50.36;96161.03;5031117;28;20522;-79
2022/07/29 10:01:41;;;;;;;5.78;1.98;;;;;;;26.40;45.43;96153.75;5033179;28;20532;-79
2022/07/29 10:04:10;;;;;;;5.22;1.73;;;;;;;26.28;47.35;96157.97;5027524;28;20045;-77
2022/07/29 10:06:56;;;;;;;5.43;1.90;;;;;;;26.19;47.70;96150.13;5027748;28;20121;-78
2022/07/29 10:09:23;;;;;;;5.72;2.17;;;;;;;26.25;46.59;96159.59;5026944;28;20046;-76
2022/07/29 10:12:14;;;;;;;4.88;1.90;;;;;;;26.17;47.25;96155.34;5027648;28;20049;-78
2022/07/29 10:14:42;;;;;;;3.38;1.80;;;;;;;26.00;45.16;96159.25;5027236;28;20045;-76
2022/07/29 10:17:10;;;;;;;7.35;2.03;;;;;;;25.61;44.47;96165.38;5026642;28;20054;-77
2022/07/29 10:19:39;;;;;;;2.92;2.15;;;;;;;25.63;45.20;96163.78;5027313;28;20045;-76
2022/07/29 10:22:07;;;;;;;3.30;2.10;;;;;;;25.70;47.84;96162.88;5026852;28;20037;-77
2022/07/29 10:24:35;;;;;;;3.60;1.67;;;;;;;25.69;45.94;96162.09;5047296;28;20056;-76
2022/07/29 10:27:03;;;;;;;1.98;1.50;;;;;;;25.72;47.36;96161.22;5047305;28;20695;-74
2022/07/29 10:29:31;;;;;;;3.25;2.00;;;;;;;25.77;46.49;96158.00;5046761;28;20056;-77
2022/07/29 10:32:11;;;;;;;3.15;1.65;;;;;;;25.94;46.43;96149.75;5047444;28;20052;-76
2022/07/29 10:34:56;;;;;;;2.30;1.80;;;;;;;25.91;45.66;96151.41;5046907;28;20397;-76
2022/07/29 10:37:33;;;;;;;7.18;1.95;;;;;;;25.76;46.33;96156.41;5065069;28;20061;-82
2022/07/29 10:42:54;;;;;;;3.92;1.85;;;;;;;26.08;45.39;96149.53;5062877;28;20088;-81
2022/07/29 10:45:21;;;;;;;6.93;1.90;;;;;;;26.09;47.43;96150.31;5060890;28;20084;-80
2022/07/29 10:47:47;;;;;;;4.80;2.10;;;;;;;26.02;50.46;96148.44;5054299;28;20051;-78
2022/07/29 10:50:16;;;;;;;6.53;2.10;;;;;;;25.90;46.66;96161.00;5053419;28;20079;-79
2022/07/29 10:52:57;;;;;;;2.83;2.10;;;;;;;25.92;48.71;96168.94;5049646;28;20053;-79
2022/07/29 10:55:36;;;;;;;4.00;2.22;;;;;;;25.98;47.71;96154.06;5059529;28;20056;-79
2022/07/29 10:58:16;;;;;;;2.95;2.00;;;;;;;26.01;47.80;96152.44;5047437;28;20056;-74
2022/07/29 11:00:43;;;;;;;2.67;1.98;;;;;;;25.53;46.15;96153.56;5047491;28;20103;-75
2022/07/29 11:03:10;;;;;;;3.75;2.45;;;;;;;25.76;51.44;96162.00;5046778;28;20118;-77
2022/07/29 11:05:55;;;;;;;4.47;2.30;;;;;;;26.01;48.47;96146.88;5049742;28;20127;-76
2022/07/29 11:08:25;;;;;;;3.08;2.20;;;;;;;26.23;48.37;96145.28;5049877;28;20049;-76
2022/07/29 11:10:54;;;;;;;3.97;2.15;;;;;;;26.44;48.85;96151.72;5049840;28;20100;-75
2022/07/29 11:13:46;;;;;;;4.07;2.40;;;;;;;26.40;48.28;96148.97;5048638;28;20052;-74
2022/07/29 11:16:14;;;;;;;5.80;2.55;;;;;;;26.59;47.66;96149.47;5049266;28;20049;-75
2022/07/29 11:19:14;;;;;;;3.47;2.22;;;;;;;26.71;46.88;96152.38;5049595;28;20507;-76
2022/07/29 11:21:46;;;;;;;4.65;2.38;;;;;;;26.86;46.76;96140.94;5051258;28;20037;-76
2022/07/29 11:24:14;;;;;;;3.90;2.28;;;;;;;26.85;48.11;96145.75;5032734;28;20045;-75
2022/07/29 11:26:41;;;;;;;4.07;2.20;;;;;;;26.86;46.37;96152.13;5033351;28;20080;-76
2022/07/29 11:29:19;;;;;;;4.63;2.58;;;;;;;26.77;47.81;96145.09;5033302;28;20049;-77
2022/07/29 11:31:51;;;;;;;4.95;2.22;;;;;;;26.82;46.33;96148.59;5033308;28;20192;-77
2022/07/29 11:34:19;;;;;;;2.97;2.20;;;;;;;26.94;48.02;96148.75;5032824;28;20096;-76
2022/07/29 11:37:20;;;;;;;4.22;2.13;;;;;;;26.90;46.74;96147.25;5033164;28;20103;-76
2022/07/29 11:39:49;;;;;;;2.47;2.15;;;;;;;26.58;44.26;96148.66;5032926;28;20053;-76
2022/07/29 11:42:38;;;;;;;4.15;2.22;;;;;;;26.54;45.35;96143.16;5032747;28;20548;-77
2022/07/29 11:45:06;;;;;;;3.50;2.30;;;;;;;26.61;45.85;96147.78;5032532;28;20038;-76
2022/07/29 11:47:36;;;;;;;6.00;2.70;;;;;;;26.48;44.07;96132.91;5032852;28;20069;-77
2022/07/29 11:50:04;;;;;;;3.55;2.60;;;;;;;26.50;44.38;96141.63;5032223;28;20566;-75
2022/07/29 11:52:37;;;;;;;7.25;2.60;;;;;;;26.34;44.88;96133.13;5040634;28;20069;-76
2022/07/29 11:55:07;;;;;;;7.15;2.10;;;;;;;26.52;47.13;96134.41;5052485;28;20048;-75